createdAt,value
2022-09-12T00:01:21.366Z,8.02
2022-09-12T00:03:57.938Z,8.45
2022-09-12T00:06:37.125Z,8.05
2022-09-12T00:09:10.084Z,8.50
2022-09-12T00:11:40.474Z,8.55
2022-09-12T00:14:12.155Z,8.52
2022-09-12T00:16:39.559Z,8.18
2022-09-12T00:36:42.662Z,7.88
2022-09-12T00:39:14.233Z,8.43
2022-09-12T00:41:42.560Z,8.05
2022-09-12T00:44:09.753Z,8.13
2022-09-12T00:46:51.345Z,8.85
2022-09-12T00:49:27.953Z,8.57
2022-09-12T00:52:20.332Z,8.40
2022-09-12T00:54:48.364Z,9.13
2022-09-12T00:57:28.850Z,8.20
2022-09-12T01:00:21.357Z,9.00
2022-09-12T01:03:13.238Z,8.65
2022-09-12T01:08:38.120Z,8.77
2022-09-12T01:11:07.663Z,8.55
2022-09-12T01:13:35.464Z,8.57
2022-09-12T01:16:06.421Z,9.00
2022-09-12T01:18:48.150Z,8.73
2022-09-12T01:24:34.280Z,7.88
2022-09-12T01:28:13.112Z,8.93
2022-09-12T01:31:01.655Z,7.93
2022-09-12T01:33:53.374Z,8.65
2022-09-12T01:36:33.758Z,8.75
2022-09-12T01:39:32.695Z,8.32
2022-09-12T01:44:58.851Z,8.45
2022-09-12T01:47:47.348Z,8.35
2022-09-12T01:50:19.270Z,8.10
2022-09-12T01:53:21.930Z,8.40
2022-09-12T01:56:12.606Z,9.10
2022-09-12T01:58:54.157Z,8.35
2022-09-12T02:01:29.986Z,8.65
2022-09-12T02:03:59.677Z,8.50
2022-09-12T02:06:48.552Z,8.40
2022-09-12T02:13:29.486Z,8.75
2022-09-12T02:16:07.234Z,8.52
2022-09-12T02:21:58.567Z,8.75
2022-09-12T02:24:34.471Z,8.13
2022-09-12T02:27:42.777Z,8.50
2022-09-12T02:33:44.510Z,8.23
2022-09-12T02:42:53.216Z,8.32
2022-09-12T02:45:23.170Z,8.43
2022-09-12T02:50:55.179Z,8.55
2022-09-12T02:53:23.560Z,9.02
2022-09-12T03:05:04.990Z,7.75
2022-09-12T03:11:08.572Z,8.95
2022-09-12T03:14:29.832Z,8.23
2022-09-12T03:17:12.569Z,8.05
2022-09-12T03:20:18.487Z,7.95
2022-09-12T03:23:00.122Z,8.43
2022-09-12T03:25:51.323Z,8.68
2022-09-12T03:28:31.502Z,8.25
2022-09-12T03:30:59.003Z,8.15
2022-09-12T03:33:29.071Z,8.50
2022-09-12T03:35:58.632Z,8.70
2022-09-12T03:38:25.431Z,8.70
2022-09-12T03:40:55.199Z,9.02
2022-09-12T03:43:38.542Z,8.60
2022-09-12T03:49:11.865Z,7.97
2022-09-12T03:51:47.451Z,8.60
2022-09-12T03:54:20.077Z,8.80
2022-09-12T04:02:44.828Z,9.60
2022-09-12T04:05:13.657Z,7.85
2022-09-12T04:08:06.554Z,8.15
2022-09-12T04:10:34.888Z,8.38
2022-09-12T04:16:40.740Z,8.70
2022-09-12T04:25:23.393Z,9.05
2022-09-12T04:33:57.600Z,9.13
2022-09-12T04:36:25.344Z,9.57
2022-09-12T04:38:58.052Z,9.85
2022-09-12T04:41:30.939Z,8.80
2022-09-12T04:47:00.787Z,9.70
2022-09-12T04:49:27.444Z,9.02
2022-09-12T04:52:21.959Z,9.68
2022-09-12T04:57:40.010Z,9.00
2022-09-12T05:00:35.868Z,9.45
2022-09-12T05:03:03.884Z,8.45
2022-09-12T05:05:38.141Z,9.75
2022-09-12T05:08:20.056Z,9.73
2022-09-12T05:11:21.519Z,9.30
2022-09-12T05:14:18.264Z,8.60
2022-09-12T05:16:49.214Z,8.75
2022-09-12T05:19:29.370Z,10.45
2022-09-12T05:22:02.170Z,9.52
2022-09-12T05:24:29.949Z,9.38
2022-09-12T05:27:03.622Z,10.15
2022-09-12T05:29:31.731Z,10.68
2022-09-12T05:32:03.078Z,9.77
2022-09-12T05:34:33.343Z,10.00
2022-09-12T05:37:00.236Z,9.90
2022-09-12T05:39:28.248Z,9.35
2022-09-12T05:41:55.649Z,9.70
2022-09-12T05:44:25.100Z,10.63
2022-09-12T05:47:01.224Z,10.60
2022-09-12T05:55:22.369Z,9.60
2022-09-12T05:58:00.948Z,9.38
2022-09-12T06:07:20.341Z,9.85
2022-09-12T06:09:46.973Z,10.73
2022-09-12T06:12:28.732Z,11.10
2022-09-12T06:14:56.355Z,13.20
2022-09-12T06:17:38.633Z,12.52
2022-09-12T06:26:07.850Z,14.38
2022-09-12T06:28:38.138Z,14.07
2022-09-12T06:37:10.994Z,14.68
2022-09-12T06:39:44.884Z,14.40
2022-09-12T06:42:15.933Z,14.18
2022-09-12T06:45:10.789Z,14.63
2022-09-12T06:48:28.903Z,15.20
2022-09-12T06:51:01.946Z,14.27
2022-09-12T06:53:29.891Z,14.68
2022-09-12T06:58:57.645Z,14.30
2022-09-12T07:04:36.420Z,13.20
2022-09-12T07:07:05.697Z,12.00
2022-09-12T07:09:35.470Z,12.73
2022-09-12T07:12:05.985Z,12.10
2022-09-12T07:14:38.168Z,12.43
2022-09-12T07:17:06.042Z,10.40
2022-09-12T07:19:32.949Z,9.38
2022-09-12T07:22:01.189Z,8.90
2022-09-12T07:24:28.480Z,8.55
2022-09-12T07:29:49.771Z,9.00
2022-09-12T07:36:36.086Z,7.47
2022-09-12T07:39:11.519Z,8.40
2022-09-12T07:42:14.843Z,7.53
2022-09-12T07:47:18.492Z,7.40
2022-09-12T07:50:04.199Z,6.70
2022-09-12T07:52:30.987Z,5.93
2022-09-12T07:54:58.010Z,6.70
2022-09-12T07:57:27.735Z,6.40
2022-09-12T07:59:58.394Z,6.07
2022-09-12T08:02:26.490Z,6.57
2022-09-12T08:05:27.608Z,6.13
2022-09-12T08:07:57.735Z,5.70
2022-09-12T08:10:47.885Z,5.88
2022-09-12T08:13:20.004Z,5.43
2022-09-12T08:16:14.540Z,5.70
2022-09-12T08:24:29.295Z,5.05
2022-09-12T08:26:56.658Z,5.00
2022-09-12T08:29:26.281Z,4.15
2022-09-12T08:32:22.877Z,4.82
2022-09-12T08:34:52.482Z,4.07
2022-09-12T08:37:51.056Z,4.00
2022-09-12T08:40:24.375Z,3.95
2022-09-12T08:48:37.525Z,3.80
2022-09-12T08:51:13.330Z,4.30
2022-09-12T08:59:08.123Z,3.58
2022-09-12T09:01:42.555Z,3.97
2022-09-12T09:05:17.459Z,3.47
2022-09-12T09:08:11.143Z,3.47
2022-09-12T09:11:22.986Z,3.40
2022-09-12T09:14:53.218Z,3.30
2022-09-12T09:17:42.534Z,3.47
2022-09-12T09:24:20.811Z,3.40
2022-09-12T09:27:39.876Z,3.22
2022-09-12T09:30:26.006Z,3.03
2022-09-12T09:33:32.766Z,2.88
2022-09-12T09:36:47.261Z,3.20
2022-09-12T09:39:42.826Z,3.25
2022-09-12T09:42:53.422Z,2.72
2022-09-12T09:45:27.050Z,2.85
2022-09-12T09:58:33.006Z,2.50
2022-09-12T10:01:05.563Z,2.40
2022-09-12T10:06:54.138Z,2.30
2022-09-12T10:09:37.036Z,2.60
2022-09-12T10:15:17.456Z,2.47
2022-09-12T10:17:49.371Z,2.60
2022-09-12T10:20:44.478Z,2.30
2022-09-12T10:23:28.787Z,2.50
2022-09-12T10:25:56.853Z,2.35
2022-09-12T10:28:39.056Z,2.13
2022-09-12T10:31:11.296Z,2.33
2022-09-12T10:37:39.174Z,2.15
2022-09-12T10:40:19.952Z,2.50
2022-09-12T10:42:49.372Z,2.50
2022-09-12T10:48:26.560Z,1.58
2022-09-12T10:50:58.767Z,1.58
2022-09-12T11:06:05.387Z,1.30
2022-09-12T11:14:56.314Z,1.50
2022-09-12T11:18:00.072Z,1.30
2022-09-12T11:24:01.584Z,1.40
2022-09-12T11:29:53.105Z,1.60
2022-09-12T11:33:10.621Z,1.52
2022-09-12T11:35:55.148Z,1.70
2022-09-12T11:38:53.961Z,1.40
2022-09-12T11:41:36.507Z,1.60
2022-09-12T11:44:14.982Z,1.70
2022-09-12T11:49:41.403Z,1.65
2022-09-12T11:58:30.578Z,1.20
2022-09-12T12:01:16.900Z,1.10
2022-09-12T12:04:25.122Z,1.10
2022-09-12T12:07:08.300Z,1.00
2022-09-12T12:10:32.027Z,1.10
2022-09-12T12:19:36.990Z,0.90
2022-09-12T12:22:24.083Z,1.20
2022-09-12T12:25:21.905Z,1.10
2022-09-12T12:28:21.048Z,1.50
2022-09-12T12:30:55.416Z,1.05
2022-09-12T12:33:59.521Z,1.13
2022-09-12T12:36:37.822Z,1.17
2022-09-12T12:39:48.554Z,0.90
2022-09-12T12:42:36.221Z,1.10
2022-09-12T12:45:17.855Z,1.25
2022-09-12T12:48:17.128Z,0.80
2022-09-12T12:50:45.294Z,1.08
2022-09-12T12:53:41.157Z,1.00
2022-09-12T12:57:01.131Z,1.00
2022-09-12T12:59:29.795Z,0.88
2022-09-12T13:02:05.097Z,1.13
2022-09-12T13:05:20.383Z,1.02
2022-09-12T13:08:25.826Z,0.95
2022-09-12T13:11:58.444Z,0.90
2022-09-12T13:14:42.426Z,1.00
2022-09-12T13:18:04.123Z,1.10
2022-09-12T13:21:25.167Z,1.08
2022-09-12T13:24:25.195Z,1.20
2022-09-12T13:26:57.060Z,1.52
2022-09-12T13:32:26.512Z,1.20
2022-09-12T13:35:19.431Z,1.42
2022-09-12T13:38:11.273Z,1.08
2022-09-12T13:41:07.693Z,0.80
2022-09-12T13:43:46.774Z,0.95
2022-09-12T13:46:44.211Z,0.90
2022-09-12T13:49:39.424Z,1.02
2022-09-12T13:52:22.515Z,0.90
2022-09-12T13:54:57.420Z,0.80
2022-09-12T13:58:33.918Z,1.10
2022-09-12T14:01:11.228Z,0.90
2022-09-12T14:04:20.273Z,0.70
2022-09-12T14:06:52.436Z,0.73
2022-09-12T14:09:38.050Z,1.02
2022-09-12T14:12:31.665Z,1.08
2022-09-12T14:15:01.695Z,1.08
2022-09-12T14:18:00.647Z,1.00
2022-09-12T14:20:38.728Z,0.90
2022-09-12T14:23:28.463Z,0.93
2022-09-12T14:26:01.772Z,0.98
2022-09-12T14:28:57.860Z,0.93
2022-09-12T14:31:31.343Z,0.88
2022-09-12T14:34:30.295Z,0.93
2022-09-12T14:37:06.235Z,0.80
2022-09-12T14:40:06.535Z,0.80
2022-09-12T14:42:42.016Z,0.80
2022-09-12T14:46:08.872Z,0.93
2022-09-12T14:49:49.632Z,0.82
2022-09-12T14:52:39.348Z,0.80
2022-09-12T14:55:58.820Z,0.90
2022-09-12T14:59:17.854Z,0.98
2022-09-12T15:06:38.030Z,1.05
2022-09-12T15:09:13.449Z,0.90
2022-09-12T15:11:48.982Z,1.00
2022-09-12T15:14:21.773Z,1.10
2022-09-12T15:16:49.911Z,0.80
2022-09-12T15:19:26.814Z,1.15
2022-09-12T15:21:54.016Z,0.80
2022-09-12T15:24:23.403Z,1.00
2022-09-12T15:26:54.678Z,0.90
2022-09-12T15:29:23.134Z,1.05
2022-09-12T15:31:51.240Z,1.00
2022-09-12T15:34:21.262Z,1.00
2022-09-12T15:36:49.130Z,1.02
2022-09-12T15:39:16.938Z,0.85
2022-09-12T15:41:47.981Z,0.90
2022-09-12T15:44:19.450Z,1.30
2022-09-12T15:47:40.607Z,1.05
2022-09-12T15:50:15.623Z,1.00
2022-09-12T15:52:48.561Z,1.40
2022-09-12T15:55:22.659Z,1.20
2022-09-12T15:58:02.441Z,1.45
2022-09-12T16:01:02.438Z,0.90
2022-09-12T16:03:34.644Z,1.30
2022-09-12T16:06:03.563Z,1.10
2022-09-12T16:08:31.593Z,1.08
2022-09-12T16:11:13.676Z,1.00
2022-09-12T16:13:41.908Z,0.82
2022-09-12T16:16:58.788Z,1.17
2022-09-12T16:19:54.679Z,1.05
2022-09-12T16:22:34.542Z,1.27
2022-09-12T16:25:53.679Z,1.30
2022-09-12T16:28:24.201Z,1.08
2022-09-12T16:31:03.819Z,1.38
2022-09-12T16:33:52.916Z,1.23
2022-09-12T16:44:52.881Z,1.10
2022-09-12T16:47:23.396Z,0.88
2022-09-12T16:49:55.259Z,0.88
2022-09-12T16:52:22.128Z,0.90
2022-09-12T16:54:48.884Z,1.23
2022-09-12T16:57:16.981Z,1.20
2022-09-12T16:59:49.446Z,1.33
2022-09-12T17:02:41.696Z,1.58
2022-09-12T17:05:11.169Z,1.55
2022-09-12T17:07:51.219Z,1.30
2022-09-12T17:10:43.707Z,1.60
2022-09-12T17:15:37.903Z,1.77
2022-09-12T17:18:06.936Z,1.60
2022-09-12T17:20:36.360Z,4.80
2022-09-12T17:23:09.644Z,2.00
2022-09-12T17:25:37.579Z,1.70
2022-09-12T17:28:11.932Z,1.70
2022-09-12T17:30:41.016Z,1.50
2022-09-12T17:33:15.710Z,1.70
2022-09-12T17:35:46.022Z,1.70
2022-09-12T17:38:17.622Z,1.50
2022-09-12T17:46:30.671Z,1.02
2022-09-12T17:49:24.789Z,1.58
2022-09-12T17:55:38.878Z,1.38
2022-09-12T17:58:07.162Z,1.50
2022-09-12T18:00:53.639Z,2.00
2022-09-12T18:03:28.711Z,1.55
2022-09-12T18:05:58.336Z,1.70
2022-09-12T18:08:25.085Z,2.47
2022-09-12T18:11:18.154Z,2.75
2022-09-12T18:13:49.114Z,1.52
2022-09-12T18:16:20.557Z,1.77
2022-09-12T18:18:50.306Z,3.00
2022-09-12T18:21:23.665Z,2.33
2022-09-12T18:24:03.770Z,2.20
2022-09-12T18:29:03.030Z,2.10
2022-09-12T18:31:30.302Z,2.20
2022-09-12T18:33:59.598Z,2.03
2022-09-12T18:36:26.964Z,1.50
2022-09-12T18:38:54.029Z,2.33
2022-09-12T18:41:23.934Z,1.63
2022-09-12T18:46:50.629Z,2.07
2022-09-12T18:49:18.405Z,1.70
2022-09-12T18:51:48.289Z,1.55
2022-09-12T18:54:16.900Z,1.73
2022-09-12T18:56:45.028Z,2.00
2022-09-12T18:59:13.607Z,1.80
2022-09-12T19:01:42.245Z,2.00
2022-09-12T19:04:12.618Z,1.83
2022-09-12T19:06:44.546Z,1.65
2022-09-12T19:09:18.107Z,2.00
2022-09-12T19:11:55.685Z,1.77
2022-09-12T19:14:24.164Z,1.90
2022-09-12T19:16:51.476Z,1.80
2022-09-12T19:19:18.909Z,2.00
2022-09-12T19:21:48.174Z,1.90
2022-09-12T19:24:17.218Z,1.83
2022-09-12T19:26:47.777Z,1.90
2022-09-12T19:29:16.926Z,2.83
2022-09-12T19:31:43.936Z,2.03
2022-09-12T19:34:15.411Z,2.00
2022-09-12T19:37:07.240Z,1.80
2022-09-12T19:39:37.274Z,2.00
2022-09-12T19:43:18.833Z,2.00
2022-09-12T19:45:49.286Z,1.80
2022-09-12T19:48:20.091Z,1.80
2022-09-12T19:51:01.123Z,2.22
2022-09-12T19:53:28.607Z,2.00
2022-09-12T19:58:55.330Z,1.85
2022-09-12T20:01:43.114Z,1.80
2022-09-12T20:04:11.122Z,2.13
2022-09-12T20:06:44.342Z,2.10
2022-09-12T20:09:14.427Z,2.08
2022-09-12T20:12:02.220Z,1.95
2022-09-12T20:14:29.835Z,2.30
2022-09-12T20:16:56.519Z,2.20
2022-09-12T20:19:30.624Z,2.33
2022-09-12T20:21:59.831Z,1.90
2022-09-12T20:24:26.923Z,2.20
2022-09-12T20:27:02.139Z,2.03
2022-09-12T20:29:29.106Z,1.77
2022-09-12T20:32:12.332Z,1.98
2022-09-12T20:34:40.616Z,2.20
2022-09-12T20:37:12.718Z,2.13
2022-09-12T20:40:00.006Z,2.13
2022-09-12T20:42:28.607Z,1.90
2022-09-12T20:44:55.746Z,2.00
2022-09-12T20:47:22.452Z,2.00
2022-09-12T20:49:53.048Z,2.00
2022-09-12T20:52:20.791Z,1.80
2022-09-12T20:54:47.632Z,1.98
2022-09-12T20:57:17.176Z,2.40
2022-09-12T20:59:51.101Z,2.50
2022-09-12T21:02:20.114Z,2.42
2022-09-12T21:04:46.893Z,2.28
2022-09-12T21:07:13.683Z,2.67
2022-09-12T21:09:43.930Z,2.15
2022-09-12T21:12:14.056Z,2.08
2022-09-12T21:14:40.664Z,2.40
2022-09-12T21:17:09.921Z,2.30
2022-09-12T21:19:38.811Z,2.30
2022-09-12T21:22:05.975Z,2.45
2022-09-12T21:24:33.612Z,2.15
2022-09-12T21:27:04.476Z,2.30
2022-09-12T21:29:37.681Z,2.70
2022-09-12T21:35:18.124Z,2.40
2022-09-12T21:43:40.893Z,2.40
2022-09-12T21:46:09.429Z,2.38
2022-09-12T21:48:37.484Z,2.63
2022-09-12T21:51:05.380Z,2.40
2022-09-12T21:53:32.669Z,2.42
2022-09-12T21:56:17.592Z,2.22
2022-09-12T21:58:53.543Z,2.53
2022-09-12T22:01:44.957Z,2.50
2022-09-12T22:04:14.494Z,2.28
2022-09-12T22:06:41.208Z,2.60
2022-09-12T22:09:09.117Z,2.50
2022-09-12T22:11:38.163Z,2.47
2022-09-12T22:14:11.019Z,2.47
2022-09-12T22:16:46.235Z,2.83
2022-09-12T22:19:20.165Z,2.30
2022-09-12T22:22:05.304Z,2.80
2022-09-12T22:25:02.974Z,2.75
2022-09-12T22:27:41.132Z,3.42
2022-09-12T22:30:08.347Z,2.90
2022-09-12T22:32:37.391Z,2.40
2022-09-12T22:35:06.050Z,2.70
2022-09-12T22:37:35.214Z,2.63
2022-09-12T22:40:02.205Z,2.75
2022-09-12T22:42:31.258Z,2.67
2022-09-12T22:44:57.998Z,2.58
2022-09-12T22:47:24.610Z,2.60
2022-09-12T22:49:51.553Z,2.40
2022-09-12T22:52:25.715Z,2.90
2022-09-12T22:55:11.159Z,3.15
2022-09-12T22:57:39.089Z,2.45
2022-09-12T23:00:12.177Z,2.97
2022-09-12T23:02:47.006Z,2.53
2022-09-12T23:05:13.751Z,2.90
2022-09-12T23:07:42.987Z,2.70
2022-09-12T23:10:16.259Z,2.80
2022-09-12T23:21:24.674Z,3.03
2022-09-12T23:23:51.852Z,2.78
2022-09-12T23:26:27.478Z,3.38
2022-09-12T23:28:57.741Z,2.70
2022-09-12T23:31:30.327Z,3.05
2022-09-12T23:34:01.163Z,2.88
2022-09-12T23:36:55.723Z,3.22
2022-09-12T23:39:22.770Z,3.42
2022-09-12T23:41:50.053Z,3.13
2022-09-12T23:44:23.139Z,3.20
2022-09-12T23:47:14.713Z,3.30
2022-09-12T23:49:44.685Z,3.15
2022-09-12T23:52:11.859Z,3.33
2022-09-12T23:54:38.610Z,3.17
2022-09-12T23:57:06.271Z,3.30
2022-09-12T23:59:36.963Z,3.53
